TimeEDT,TemperatureF,Dew PointF,Humidity,Sea Level PressureIn,VisibilityMPH,Wind Direction,Wind SpeedMPH,Gust SpeedMPH,PrecipitationIn,Events,Conditions,WindDirDegrees,DateUTC
12:17 AM,64.4,62.6,94,29.90,10.0,Calm,Calm,-,N/A,,Overcast,0,2013-04-15 04:17:00
12:53 AM,64.0,62.1,93,29.89,10.0,NNW,3.5,-,N/A,,Overcast,330,2013-04-15 04:53:00
1:53 AM,64.9,63.0,93,29.88,10.0,NNW,4.6,-,N/A,,Overcast,330,2013-04-15 05:53:00
2:53 AM,64.9,63.0,93,29.90,10.0,WNW,3.5,-,N/A,,Overcast,300,2013-04-15 06:53:00
3:15 AM,64.4,62.6,94,29.89,10.0,Calm,Calm,-,N/A,,Scattered Clouds,0,2013-04-15 07:15:00
3:53 AM,63.0,62.1,97,29.90,10.0,Calm,Calm,-,N/A,,Clear,0,2013-04-15 07:53:00
4:29 AM,62.6,60.8,94,29.91,9.0,West,3.5,-,N/A,,Partly Cloudy,270,2013-04-15 08:29:00
4:53 AM,63.0,62.1,97,29.92,9.0,West,3.5,-,N/A,,Mostly Cloudy,280,2013-04-15 08:53:00
5:02 AM,62.6,60.8,94,29.92,8.0,WSW,3.5,-,N/A,,Scattered Clouds,250,2013-04-15 09:02:00
5:53 AM,62.1,61.0,96,29.92,7.0,West,3.5,-,N/A,,Partly Cloudy,260,2013-04-15 09:53:00
6:08 AM,62.6,60.8,94,29.92,5.0,Calm,Calm,-,N/A,,Mostly Cloudy,0,2013-04-15 10:08:00
6:32 AM,62.6,60.8,94,29.93,5.0,West,3.5,-,N/A,,Scattered Clouds,280,2013-04-15 10:32:00
6:39 AM,62.6,60.8,94,29.94,5.0,West,3.5,-,N/A,,Mostly Cloudy,270,2013-04-15 10:39:00
6:53 AM,62.1,61.0,96,29.95,3.0,West,4.6,-,N/A,,Overcast,270,2013-04-15 10:53:00
7:53 AM,62.1,61.0,96,29.98,3.0,WNW,4.6,-,N/A,,Overcast,300,2013-04-15 11:53:00
7:58 AM,62.6,60.8,94,29.98,1.8,WNW,3.5,-,N/A,,Overcast,290,2013-04-15 11:58:00
8:27 AM,62.6,60.8,94,29.99,0.5,West,3.5,-,N/A,Fog,Fog,280,2013-04-15 12:27:00
8:41 AM,62.6,60.8,94,30.00,1.0,West,5.8,-,N/A,,Overcast,260,2013-04-15 12:41:00
8:48 AM,62.6,60.8,94,30.00,0.8,WNW,5.8,-,N/A,,Overcast,290,2013-04-15 12:48:00
8:53 AM,62.1,61.0,96,30.01,1.0,WNW,4.6,-,N/A,,Overcast,290,2013-04-15 12:53:00
9:34 AM,62.6,62.6,100,30.02,2.5,WNW,6.9,-,N/A,,Overcast,300,2013-04-15 13:34:00
9:53 AM,64.0,62.1,93,30.03,2.5,Variable,5.8,-,N/A,,Overcast,0,2013-04-15 13:53:00
10:09 AM,64.4,62.6,94,30.03,4.0,WNW,4.6,-,N/A,,Overcast,290,2013-04-15 14:09:00
10:28 AM,64.4,62.6,94,30.03,6.0,NW,5.8,-,N/A,,Overcast,310,2013-04-15 14:28:00
10:53 AM,66.9,62.1,84,30.03,10.0,WNW,6.9,-,N/A,,Overcast,300,2013-04-15 14:53:00
11:20 AM,68.0,60.8,78,30.04,10.0,NW,8.1,-,N/A,,Mostly Cloudy,310,2013-04-15 15:20:00
11:27 AM,69.8,62.6,78,30.04,10.0,NW,8.1,-,N/A,,Scattered Clouds,310,2013-04-15 15:27:00
11:49 AM,69.8,62.6,78,30.04,10.0,Variable,4.6,-,N/A,,Mostly Cloudy,0,2013-04-15 15:49:00
11:53 AM,70.0,62.1,76,30.04,10.0,NW,6.9,-,N/A,,Mostly Cloudy,310,2013-04-15 15:53:00
12:27 PM,71.6,62.6,73,30.04,10.0,NNW,8.1,-,N/A,,Mostly Cloudy,340,2013-04-15 16:27:00
12:53 PM,72.0,61.0,68,30.05,10.0,North,8.1,-,N/A,,Mostly Cloudy,350,2013-04-15 16:53:00
1:23 PM,71.6,62.6,73,30.05,10.0,North,10.4,-,N/A,,Scattered Clouds,360,2013-04-15 17:23:00
1:36 PM,71.6,60.8,69,30.05,10.0,North,9.2,-,N/A,,Mostly Cloudy,350,2013-04-15 17:36:00
1:53 PM,72.0,61.0,68,30.05,10.0,North,10.4,-,N/A,,Mostly Cloudy,10,2013-04-15 17:53:00
2:53 PM,70.0,62.1,76,30.06,10.0,East,11.5,-,N/A,,Overcast,80,2013-04-15 18:53:00
3:53 PM,72.0,62.1,71,30.04,10.0,East,9.2,-,N/A,,Mostly Cloudy,90,2013-04-15 19:53:00
4:53 PM,73.9,62.1,66,30.04,10.0,ENE,9.2,-,N/A,,Mostly Cloudy,70,2013-04-15 20:53:00
5:01 PM,73.4,62.6,69,30.04,10.0,NE,12.7,-,N/A,,Partly Cloudy,50,2013-04-15 21:01:00
5:53 PM,72.0,63.0,73,30.06,10.0,ENE,11.5,-,N/A,,Scattered Clouds,70,2013-04-15 21:53:00
6:53 PM,70.0,64.0,81,30.07,10.0,East,9.2,-,N/A,,Clear,90,2013-04-15 22:53:00
7:53 PM,68.0,63.0,84,30.08,10.0,NNE,5.8,-,N/A,,Clear,30,2013-04-15 23:53:00
8:53 PM,66.0,63.0,90,30.08,10.0,NE,6.9,-,N/A,,Clear,40,2013-04-16 00:53:00
9:53 PM,66.0,63.0,90,30.12,10.0,NE,4.6,-,N/A,,Clear,40,2013-04-16 01:53:00
10:53 PM,66.0,64.0,93,30.14,10.0,ENE,4.6,-,N/A,,Mostly Cloudy,60,2013-04-16 02:53:00
11:53 PM,66.0,63.0,90,30.15,10.0,NE,5.8,-,N/A,,Mostly Cloudy,40,2013-04-16 03:53:00